sensor_id;sensor_type;location;lat;lon;timestamp;P1;durP1;ratioP1;P2;durP2;ratioP2
64653;SDS011;51065;48.884;12.598;2023-02-05T00:01:17;7.97;;;2.97;;
64653;SDS011;51065;48.884;12.598;2023-02-05T00:03:42;7.75;;;3.47;;
64653;SDS011;51065;48.884;12.598;2023-02-05T00:06:08;7.00;;;2.95;;
64653;SDS011;51065;48.884;12.598;2023-02-05T00:08:33;10.63;;;3.53;;
64653;SDS011;51065;48.884;12.598;2023-02-05T00:10:59;8.70;;;3.38;;
64653;SDS011;51065;48.884;12.598;2023-02-05T00:13:31;7.80;;;2.97;;
64653;SDS011;51065;48.884;12.598;2023-02-05T00:15:57;5.28;;;2.60;;
64653;SDS011;51065;48.884;12.598;2023-02-05T00:18:22;7.82;;;3.10;;
64653;SDS011;51065;48.884;12.598;2023-02-05T00:20:48;11.48;;;3.38;;
64653;SDS011;51065;48.884;12.598;2023-02-05T00:23:13;7.75;;;3.28;;
64653;SDS011;51065;48.884;12.598;2023-02-05T00:25:39;10.00;;;3.72;;
64653;SDS011;51065;48.884;12.598;2023-02-05T00:28:04;8.27;;;3.47;;
64653;SDS011;51065;48.884;12.598;2023-02-05T00:30:30;8.43;;;3.33;;
64653;SDS011;51065;48.884;12.598;2023-02-05T00:32:55;9.45;;;3.85;;
64653;SDS011;51065;48.884;12.598;2023-02-05T00:35:21;11.43;;;4.03;;
64653;SDS011;51065;48.884;12.598;2023-02-05T00:37:46;9.65;;;4.20;;
64653;SDS011;51065;48.884;12.598;2023-02-05T00:40:12;8.98;;;3.67;;
64653;SDS011;51065;48.884;12.598;2023-02-05T00:42:38;11.48;;;4.53;;
64653;SDS011;51065;48.884;12.598;2023-02-05T00:45:03;9.30;;;4.10;;
64653;SDS011;51065;48.884;12.598;2023-02-05T00:47:29;7.65;;;3.70;;
64653;SDS011;51065;48.884;12.598;2023-02-05T00:49:55;9.73;;;3.28;;
64653;SDS011;51065;48.884;12.598;2023-02-05T00:52:20;7.10;;;3.00;;
64653;SDS011;51065;48.884;12.598;2023-02-05T00:54:46;7.78;;;3.47;;
64653;SDS011;51065;48.884;12.598;2023-02-05T00:57:11;8.93;;;3.67;;
64653;SDS011;51065;48.884;12.598;2023-02-05T00:59:37;8.02;;;3.17;;
64653;SDS011;51065;48.884;12.598;2023-02-05T01:02:02;11.15;;;4.07;;
64653;SDS011;51065;48.884;12.598;2023-02-05T01:04:28;10.70;;;3.70;;
64653;SDS011;51065;48.884;12.598;2023-02-05T01:06:54;10.90;;;3.63;;
64653;SDS011;51065;48.884;12.598;2023-02-05T01:09:20;13.27;;;3.75;;
64653;SDS011;51065;48.884;12.598;2023-02-05T01:11:46;8.90;;;3.60;;
64653;SDS011;51065;48.884;12.598;2023-02-05T01:14:12;11.48;;;3.92;;
64653;SDS011;51065;48.884;12.598;2023-02-05T01:16:38;8.25;;;3.53;;
64653;SDS011;51065;48.884;12.598;2023-02-05T01:19:03;11.18;;;4.25;;
64653;SDS011;51065;48.884;12.598;2023-02-05T01:21:29;13.40;;;3.97;;
64653;SDS011;51065;48.884;12.598;2023-02-05T01:23:55;11.18;;;4.00;;
64653;SDS011;51065;48.884;12.598;2023-02-05T01:26:21;8.95;;;4.07;;
64653;SDS011;51065;48.884;12.598;2023-02-05T01:28:47;11.50;;;4.10;;
64653;SDS011;51065;48.884;12.598;2023-02-05T01:31:13;13.13;;;4.75;;
64653;SDS011;51065;48.884;12.598;2023-02-05T01:33:38;12.07;;;4.38;;
64653;SDS011;51065;48.884;12.598;2023-02-05T01:36:04;12.90;;;5.10;;
64653;SDS011;51065;48.884;12.598;2023-02-05T01:38:30;12.40;;;5.03;;
64653;SDS011;51065;48.884;12.598;2023-02-05T01:40:55;13.20;;;4.88;;
64653;SDS011;51065;48.884;12.598;2023-02-05T01:43:23;11.43;;;4.47;;
64653;SDS011;51065;48.884;12.598;2023-02-05T01:48:50;14.75;;;5.03;;
64653;SDS011;51065;48.884;12.598;2023-02-05T01:51:20;12.70;;;4.70;;
64653;SDS011;51065;48.884;12.598;2023-02-05T01:53:47;11.65;;;4.65;;
64653;SDS011;51065;48.884;12.598;2023-02-05T01:56:24;14.38;;;5.30;;
64653;SDS011;51065;48.884;12.598;2023-02-05T01:58:54;12.52;;;4.93;;
64653;SDS011;51065;48.884;12.598;2023-02-05T02:01:39;11.70;;;4.35;;
64653;SDS011;51065;48.884;12.598;2023-02-05T02:04:05;13.10;;;4.57;;
64653;SDS011;51065;48.884;12.598;2023-02-05T02:06:32;18.77;;;6.10;;
64653;SDS011;51065;48.884;12.598;2023-02-05T02:08:58;15.65;;;5.22;;
64653;SDS011;51065;48.884;12.598;2023-02-05T02:11:25;14.07;;;5.07;;
64653;SDS011;51065;48.884;12.598;2023-02-05T02:13:53;16.10;;;5.03;;
64653;SDS011;51065;48.884;12.598;2023-02-05T02:16:22;15.25;;;5.57;;
64653;SDS011;51065;48.884;12.598;2023-02-05T02:18:48;18.23;;;6.28;;
64653;SDS011;51065;48.884;12.598;2023-02-05T02:21:34;25.98;;;9.65;;
64653;SDS011;51065;48.884;12.598;2023-02-05T02:24:21;33.22;;;10.43;;
64653;SDS011;51065;48.884;12.598;2023-02-05T02:27:13;30.48;;;10.43;;
64653;SDS011;51065;48.884;12.598;2023-02-05T02:33:04;18.17;;;5.55;;
64653;SDS011;51065;48.884;12.598;2023-02-05T02:38:11;17.60;;;5.93;;
64653;SDS011;51065;48.884;12.598;2023-02-05T02:40:51;14.68;;;5.30;;
64653;SDS011;51065;48.884;12.598;2023-02-05T02:48:47;9.85;;;4.45;;
64653;SDS011;51065;48.884;12.598;2023-02-05T02:51:16;9.88;;;4.25;;
64653;SDS011;51065;48.884;12.598;2023-02-05T02:53:46;9.27;;;4.38;;
64653;SDS011;51065;48.884;12.598;2023-02-05T02:56:15;10.77;;;3.97;;
64653;SDS011;51065;48.884;12.598;2023-02-05T02:58:47;11.18;;;4.82;;
64653;SDS011;51065;48.884;12.598;2023-02-05T03:01:18;11.77;;;3.95;;
64653;SDS011;51065;48.884;12.598;2023-02-05T03:03:53;13.68;;;5.07;;
64653;SDS011;51065;48.884;12.598;2023-02-05T03:06:23;12.13;;;4.55;;
64653;SDS011;51065;48.884;12.598;2023-02-05T03:08:55;12.05;;;4.55;;
64653;SDS011;51065;48.884;12.598;2023-02-05T03:11:24;12.45;;;4.60;;
64653;SDS011;51065;48.884;12.598;2023-02-05T03:13:50;9.50;;;4.28;;
64653;SDS011;51065;48.884;12.598;2023-02-05T03:16:17;12.88;;;4.60;;
64653;SDS011;51065;48.884;12.598;2023-02-05T03:18:44;13.30;;;4.43;;
64653;SDS011;51065;48.884;12.598;2023-02-05T03:21:18;12.65;;;4.35;;
64653;SDS011;51065;48.884;12.598;2023-02-05T03:23:49;12.80;;;4.43;;
64653;SDS011;51065;48.884;12.598;2023-02-05T03:26:22;9.93;;;4.70;;
64653;SDS011;51065;48.884;12.598;2023-02-05T03:28:48;8.55;;;3.97;;
64653;SDS011;51065;48.884;12.598;2023-02-05T03:31:19;10.95;;;4.35;;
64653;SDS011;51065;48.884;12.598;2023-02-05T03:34:14;11.60;;;4.40;;
64653;SDS011;51065;48.884;12.598;2023-02-05T03:42:40;9.88;;;4.03;;
64653;SDS011;51065;48.884;12.598;2023-02-05T03:50:31;10.07;;;4.50;;
64653;SDS011;51065;48.884;12.598;2023-02-05T03:55:48;9.02;;;3.83;;
64653;SDS011;51065;48.884;12.598;2023-02-05T03:58:21;9.75;;;3.95;;
64653;SDS011;51065;48.884;12.598;2023-02-05T04:00:50;11.65;;;4.10;;
64653;SDS011;51065;48.884;12.598;2023-02-05T04:03:16;10.40;;;4.35;;
64653;SDS011;51065;48.884;12.598;2023-02-05T04:05:42;9.93;;;4.60;;
64653;SDS011;51065;48.884;12.598;2023-02-05T04:08:07;11.32;;;4.22;;
64653;SDS011;51065;48.884;12.598;2023-02-05T04:10:33;10.05;;;3.80;;
64653;SDS011;51065;48.884;12.598;2023-02-05T04:12:59;11.73;;;4.20;;
64653;SDS011;51065;48.884;12.598;2023-02-05T04:15:24;10.85;;;4.05;;
64653;SDS011;51065;48.884;12.598;2023-02-05T04:17:50;8.73;;;3.58;;
64653;SDS011;51065;48.884;12.598;2023-02-05T04:20:15;9.43;;;3.80;;
64653;SDS011;51065;48.884;12.598;2023-02-05T04:22:41;7.32;;;3.88;;
64653;SDS011;51065;48.884;12.598;2023-02-05T04:25:07;10.23;;;3.85;;
64653;SDS011;51065;48.884;12.598;2023-02-05T04:27:32;10.18;;;3.55;;
64653;SDS011;51065;48.884;12.598;2023-02-05T04:29:58;8.27;;;3.70;;
64653;SDS011;51065;48.884;12.598;2023-02-05T04:32:23;12.85;;;4.55;;
64653;SDS011;51065;48.884;12.598;2023-02-05T04:34:49;11.60;;;3.70;;
64653;SDS011;51065;48.884;12.598;2023-02-05T04:37:15;9.43;;;3.65;;
64653;SDS011;51065;48.884;12.598;2023-02-05T04:39:40;11.10;;;3.78;;
64653;SDS011;51065;48.884;12.598;2023-02-05T04:42:06;12.55;;;4.55;;
64653;SDS011;51065;48.884;12.598;2023-02-05T04:44:31;10.27;;;4.07;;
64653;SDS011;51065;48.884;12.598;2023-02-05T04:46:57;8.90;;;4.03;;
64653;SDS011;51065;48.884;12.598;2023-02-05T04:49:23;7.68;;;3.83;;
64653;SDS011;51065;48.884;12.598;2023-02-05T04:51:49;10.10;;;4.22;;
64653;SDS011;51065;48.884;12.598;2023-02-05T04:54:14;11.38;;;4.20;;
64653;SDS011;51065;48.884;12.598;2023-02-05T04:56:40;11.32;;;4.57;;
64653;SDS011;51065;48.884;12.598;2023-02-05T04:59:05;10.23;;;4.32;;
64653;SDS011;51065;48.884;12.598;2023-02-05T05:01:31;11.60;;;4.47;;
64653;SDS011;51065;48.884;12.598;2023-02-05T05:03:57;10.55;;;4.60;;
64653;SDS011;51065;48.884;12.598;2023-02-05T05:06:22;15.27;;;5.10;;
64653;SDS011;51065;48.884;12.598;2023-02-05T05:08:49;14.32;;;5.22;;
64653;SDS011;51065;48.884;12.598;2023-02-05T05:11:16;12.18;;;4.80;;
64653;SDS011;51065;48.884;12.598;2023-02-05T05:13:43;10.18;;;4.28;;
64653;SDS011;51065;48.884;12.598;2023-02-05T05:16:09;14.45;;;5.05;;
64653;SDS011;51065;48.884;12.598;2023-02-05T05:18:36;11.48;;;4.78;;
64653;SDS011;51065;48.884;12.598;2023-02-05T05:21:02;13.40;;;5.32;;
64653;SDS011;51065;48.884;12.598;2023-02-05T05:23:29;14.02;;;4.80;;
64653;SDS011;51065;48.884;12.598;2023-02-05T05:25:56;15.75;;;7.15;;
64653;SDS011;51065;48.884;12.598;2023-02-05T05:28:21;14.02;;;7.05;;
64653;SDS011;51065;48.884;12.598;2023-02-05T05:30:47;14.15;;;6.38;;
64653;SDS011;51065;48.884;12.598;2023-02-05T05:33:13;14.25;;;6.65;;
64653;SDS011;51065;48.884;12.598;2023-02-05T05:35:38;17.08;;;6.20;;
64653;SDS011;51065;48.884;12.598;2023-02-05T05:38:04;19.92;;;6.53;;
64653;SDS011;51065;48.884;12.598;2023-02-05T05:40:30;13.50;;;5.30;;
64653;SDS011;51065;48.884;12.598;2023-02-05T05:43:15;15.95;;;6.25;;
64653;SDS011;51065;48.884;12.598;2023-02-05T05:46:01;11.27;;;5.25;;
64653;SDS011;51065;48.884;12.598;2023-02-05T05:48:28;13.68;;;4.90;;
64653;SDS011;51065;48.884;12.598;2023-02-05T05:50:53;13.25;;;4.93;;
64653;SDS011;51065;48.884;12.598;2023-02-05T05:53:19;14.02;;;5.03;;
64653;SDS011;51065;48.884;12.598;2023-02-05T05:55:45;12.00;;;5.22;;
64653;SDS011;51065;48.884;12.598;2023-02-05T05:58:11;13.95;;;5.47;;
64653;SDS011;51065;48.884;12.598;2023-02-05T06:00:37;14.27;;;4.65;;
64653;SDS011;51065;48.884;12.598;2023-02-05T06:03:04;12.00;;;4.22;;
64653;SDS011;51065;48.884;12.598;2023-02-05T06:05:30;10.88;;;4.03;;
64653;SDS011;51065;48.884;12.598;2023-02-05T06:07:56;8.65;;;3.30;;
64653;SDS011;51065;48.884;12.598;2023-02-05T06:10:22;11.68;;;3.63;;
64653;SDS011;51065;48.884;12.598;2023-02-05T06:12:48;7.97;;;3.30;;
64653;SDS011;51065;48.884;12.598;2023-02-05T06:15:14;8.25;;;3.40;;
64653;SDS011;51065;48.884;12.598;2023-02-05T06:17:40;9.63;;;4.05;;
64653;SDS011;51065;48.884;12.598;2023-02-05T06:20:06;9.18;;;3.17;;
64653;SDS011;51065;48.884;12.598;2023-02-05T06:22:32;7.78;;;3.42;;
64653;SDS011;51065;48.884;12.598;2023-02-05T06:24:57;8.00;;;3.70;;
64653;SDS011;51065;48.884;12.598;2023-02-05T06:27:23;5.30;;;2.95;;
64653;SDS011;51065;48.884;12.598;2023-02-05T06:29:48;8.52;;;3.58;;
64653;SDS011;51065;48.884;12.598;2023-02-05T06:32:14;8.50;;;3.22;;
64653;SDS011;51065;48.884;12.598;2023-02-05T06:34:40;7.35;;;2.90;;
64653;SDS011;51065;48.884;12.598;2023-02-05T06:37:05;7.45;;;3.10;;
64653;SDS011;51065;48.884;12.598;2023-02-05T06:39:31;7.13;;;3.30;;
64653;SDS011;51065;48.884;12.598;2023-02-05T06:41:57;7.20;;;3.30;;
64653;SDS011;51065;48.884;12.598;2023-02-05T06:44:22;7.13;;;2.95;;
64653;SDS011;51065;48.884;12.598;2023-02-05T06:46:48;10.82;;;3.80;;
64653;SDS011;51065;48.884;12.598;2023-02-05T06:49:14;7.28;;;2.80;;
64653;SDS011;51065;48.884;12.598;2023-02-05T06:51:39;6.32;;;3.38;;
64653;SDS011;51065;48.884;12.598;2023-02-05T06:54:05;7.32;;;3.38;;
64653;SDS011;51065;48.884;12.598;2023-02-05T06:56:30;9.68;;;3.28;;
64653;SDS011;51065;48.884;12.598;2023-02-05T06:58:56;7.28;;;3.33;;
64653;SDS011;51065;48.884;12.598;2023-02-05T07:01:22;7.85;;;3.72;;
64653;SDS011;51065;48.884;12.598;2023-02-05T07:03:47;9.48;;;3.20;;
64653;SDS011;51065;48.884;12.598;2023-02-05T07:06:13;9.43;;;3.90;;
64653;SDS011;51065;48.884;12.598;2023-02-05T07:08:38;9.75;;;4.07;;
64653;SDS011;51065;48.884;12.598;2023-02-05T07:11:04;11.38;;;4.15;;
64653;SDS011;51065;48.884;12.598;2023-02-05T07:13:30;12.07;;;5.05;;
64653;SDS011;51065;48.884;12.598;2023-02-05T07:15:55;10.40;;;3.88;;
64653;SDS011;51065;48.884;12.598;2023-02-05T07:18:21;9.13;;;3.88;;
64653;SDS011;51065;48.884;12.598;2023-02-05T07:20:48;11.98;;;3.85;;
64653;SDS011;51065;48.884;12.598;2023-02-05T07:23:13;9.70;;;4.00;;
64653;SDS011;51065;48.884;12.598;2023-02-05T07:25:39;9.70;;;4.22;;
64653;SDS011;51065;48.884;12.598;2023-02-05T07:28:05;15.40;;;5.25;;
64653;SDS011;51065;48.884;12.598;2023-02-05T07:30:32;22.33;;;8.52;;
64653;SDS011;51065;48.884;12.598;2023-02-05T07:32:59;34.80;;;12.48;;
64653;SDS011;51065;48.884;12.598;2023-02-05T07:35:25;32.10;;;12.55;;
64653;SDS011;51065;48.884;12.598;2023-02-05T07:37:51;33.30;;;12.25;;
64653;SDS011;51065;48.884;12.598;2023-02-05T07:40:16;26.00;;;9.52;;
64653;SDS011;51065;48.884;12.598;2023-02-05T07:42:42;24.05;;;10.85;;
64653;SDS011;51065;48.884;12.598;2023-02-05T07:45:08;22.40;;;9.77;;
64653;SDS011;51065;48.884;12.598;2023-02-05T07:47:33;21.88;;;9.57;;
64653;SDS011;51065;48.884;12.598;2023-02-05T07:49:59;20.50;;;9.35;;
64653;SDS011;51065;48.884;12.598;2023-02-05T07:52:25;21.73;;;8.95;;
64653;SDS011;51065;48.884;12.598;2023-02-05T07:54:50;22.42;;;9.40;;
64653;SDS011;51065;48.884;12.598;2023-02-05T07:57:16;23.75;;;8.60;;
64653;SDS011;51065;48.884;12.598;2023-02-05T07:59:41;22.63;;;9.93;;
64653;SDS011;51065;48.884;12.598;2023-02-05T08:02:08;20.30;;;8.80;;
64653;SDS011;51065;48.884;12.598;2023-02-05T08:04:34;17.65;;;6.80;;
64653;SDS011;51065;48.884;12.598;2023-02-05T08:07:00;20.02;;;8.70;;
64653;SDS011;51065;48.884;12.598;2023-02-05T08:09:25;20.30;;;9.60;;
64653;SDS011;51065;48.884;12.598;2023-02-05T08:11:51;22.92;;;10.55;;
64653;SDS011;51065;48.884;12.598;2023-02-05T08:14:17;24.48;;;11.00;;
64653;SDS011;51065;48.884;12.598;2023-02-05T08:16:42;17.42;;;7.50;;
64653;SDS011;51065;48.884;12.598;2023-02-05T08:19:10;19.13;;;6.70;;
64653;SDS011;51065;48.884;12.598;2023-02-05T08:21:39;17.40;;;6.90;;
64653;SDS011;51065;48.884;12.598;2023-02-05T08:24:05;18.30;;;6.35;;
64653;SDS011;51065;48.884;12.598;2023-02-05T08:26:30;19.75;;;7.82;;
64653;SDS011;51065;48.884;12.598;2023-02-05T08:28:56;16.95;;;7.07;;
64653;SDS011;51065;48.884;12.598;2023-02-05T08:31:22;17.90;;;6.63;;
64653;SDS011;51065;48.884;12.598;2023-02-05T08:33:47;16.98;;;6.30;;
64653;SDS011;51065;48.884;12.598;2023-02-05T08:36:15;15.02;;;5.65;;
64653;SDS011;51065;48.884;12.598;2023-02-05T08:38:40;16.55;;;5.72;;
64653;SDS011;51065;48.884;12.598;2023-02-05T08:41:07;14.93;;;6.00;;
64653;SDS011;51065;48.884;12.598;2023-02-05T08:43:36;14.60;;;5.90;;
64653;SDS011;51065;48.884;12.598;2023-02-05T08:46:03;17.40;;;6.75;;
64653;SDS011;51065;48.884;12.598;2023-02-05T08:48:29;14.60;;;6.63;;
64653;SDS011;51065;48.884;12.598;2023-02-05T08:50:54;19.60;;;7.75;;
64653;SDS011;51065;48.884;12.598;2023-02-05T08:53:20;13.65;;;6.25;;
64653;SDS011;51065;48.884;12.598;2023-02-05T08:55:53;17.60;;;7.13;;
64653;SDS011;51065;48.884;12.598;2023-02-05T08:58:22;16.00;;;6.32;;
64653;SDS011;51065;48.884;12.598;2023-02-05T09:00:48;17.83;;;7.28;;
64653;SDS011;51065;48.884;12.598;2023-02-05T09:03:20;15.77;;;7.07;;
64653;SDS011;51065;48.884;12.598;2023-02-05T09:05:45;16.42;;;6.38;;
64653;SDS011;51065;48.884;12.598;2023-02-05T09:08:11;15.68;;;6.47;;
64653;SDS011;51065;48.884;12.598;2023-02-05T09:10:36;14.20;;;5.82;;
64653;SDS011;51065;48.884;12.598;2023-02-05T09:13:02;12.57;;;5.28;;
64653;SDS011;51065;48.884;12.598;2023-02-05T09:15:28;10.13;;;4.38;;
64653;SDS011;51065;48.884;12.598;2023-02-05T09:17:54;11.23;;;4.00;;
64653;SDS011;51065;48.884;12.598;2023-02-05T09:20:19;9.00;;;4.00;;
64653;SDS011;51065;48.884;12.598;2023-02-05T09:22:45;15.43;;;5.07;;
64653;SDS011;51065;48.884;12.598;2023-02-05T09:25:10;10.05;;;3.58;;
64653;SDS011;51065;48.884;12.598;2023-02-05T09:27:36;8.20;;;3.42;;
64653;SDS011;51065;48.884;12.598;2023-02-05T09:30:02;6.72;;;3.38;;
64653;SDS011;51065;48.884;12.598;2023-02-05T09:32:28;7.03;;;3.40;;
64653;SDS011;51065;48.884;12.598;2023-02-05T09:34:53;9.60;;;3.53;;
64653;SDS011;51065;48.884;12.598;2023-02-05T09:37:19;6.50;;;3.10;;
64653;SDS011;51065;48.884;12.598;2023-02-05T09:39:44;11.38;;;3.80;;
64653;SDS011;51065;48.884;12.598;2023-02-05T09:42:18;9.35;;;3.80;;
64653;SDS011;51065;48.884;12.598;2023-02-05T09:48:03;16.27;;;5.40;;
64653;SDS011;51065;48.884;12.598;2023-02-05T09:50:41;21.58;;;7.72;;
64653;SDS011;51065;48.884;12.598;2023-02-05T09:53:12;33.97;;;13.32;;
64653;SDS011;51065;48.884;12.598;2023-02-05T09:55:42;9.70;;;3.90;;
64653;SDS011;51065;48.884;12.598;2023-02-05T09:58:18;12.50;;;5.60;;
64653;SDS011;51065;48.884;12.598;2023-02-05T10:00:50;9.98;;;4.47;;
64653;SDS011;51065;48.884;12.598;2023-02-05T10:03:23;12.52;;;5.35;;
64653;SDS011;51065;48.884;12.598;2023-02-05T10:06:04;8.93;;;3.67;;
64653;SDS011;51065;48.884;12.598;2023-02-05T10:19:46;5.78;;;3.00;;
64653;SDS011;51065;48.884;12.598;2023-02-05T10:23:09;8.13;;;2.60;;
64653;SDS011;51065;48.884;12.598;2023-02-05T10:26:02;6.65;;;3.00;;
64653;SDS011;51065;48.884;12.598;2023-02-05T10:28:25;5.10;;;2.60;;
64653;SDS011;51065;48.884;12.598;2023-02-05T10:31:05;5.22;;;2.35;;
64653;SDS011;51065;48.884;12.598;2023-02-05T10:33:49;6.88;;;3.00;;
64653;SDS011;51065;48.884;12.598;2023-02-05T10:36:20;11.98;;;4.47;;
64653;SDS011;51065;48.884;12.598;2023-02-05T10:38:47;5.82;;;3.05;;
64653;SDS011;51065;48.884;12.598;2023-02-05T10:46:46;4.55;;;2.83;;
64653;SDS011;51065;48.884;12.598;2023-02-05T10:49:20;8.00;;;3.63;;
64653;SDS011;51065;48.884;12.598;2023-02-05T10:51:50;8.70;;;3.63;;
64653;SDS011;51065;48.884;12.598;2023-02-05T10:54:27;8.90;;;4.13;;
64653;SDS011;51065;48.884;12.598;2023-02-05T10:56:58;10.07;;;4.18;;
64653;SDS011;51065;48.884;12.598;2023-02-05T10:59:28;10.02;;;4.43;;
64653;SDS011;51065;48.884;12.598;2023-02-05T11:01:56;9.98;;;4.35;;
64653;SDS011;51065;48.884;12.598;2023-02-05T11:07:33;10.48;;;3.50;;
64653;SDS011;51065;48.884;12.598;2023-02-05T11:12:48;10.80;;;4.25;;
64653;SDS011;51065;48.884;12.598;2023-02-05T11:15:54;12.70;;;4.20;;
64653;SDS011;51065;48.884;12.598;2023-02-05T11:18:23;27.20;;;6.55;;
64653;SDS011;51065;48.884;12.598;2023-02-05T11:20:56;10.90;;;4.20;;
64653;SDS011;51065;48.884;12.598;2023-02-05T11:23:25;6.78;;;2.95;;
64653;SDS011;51065;48.884;12.598;2023-02-05T11:25:54;7.63;;;3.20;;
64653;SDS011;51065;48.884;12.598;2023-02-05T11:28:30;7.85;;;3.55;;
64653;SDS011;51065;48.884;12.598;2023-02-05T11:31:16;5.45;;;3.03;;
64653;SDS011;51065;48.884;12.598;2023-02-05T11:33:51;7.93;;;3.28;;
64653;SDS011;51065;48.884;12.598;2023-02-05T11:36:33;8.48;;;3.35;;
64653;SDS011;51065;48.884;12.598;2023-02-05T11:39:01;8.23;;;4.10;;
64653;SDS011;51065;48.884;12.598;2023-02-05T11:41:30;6.22;;;3.05;;
64653;SDS011;51065;48.884;12.598;2023-02-05T11:44:15;8.32;;;3.60;;
64653;SDS011;51065;48.884;12.598;2023-02-05T11:46:44;7.03;;;2.97;;
64653;SDS011;51065;48.884;12.598;2023-02-05T11:49:17;7.32;;;3.22;;
64653;SDS011;51065;48.884;12.598;2023-02-05T11:51:46;8.60;;;3.45;;
64653;SDS011;51065;48.884;12.598;2023-02-05T11:54:17;8.83;;;3.53;;
64653;SDS011;51065;48.884;12.598;2023-02-05T11:59:25;7.97;;;3.80;;
64653;SDS011;51065;48.884;12.598;2023-02-05T12:01:50;9.20;;;4.20;;
64653;SDS011;51065;48.884;12.598;2023-02-05T12:04:17;8.75;;;3.63;;
64653;SDS011;51065;48.884;12.598;2023-02-05T12:06:55;10.80;;;4.47;;
64653;SDS011;51065;48.884;12.598;2023-02-05T12:09:25;8.88;;;3.83;;
64653;SDS011;51065;48.884;12.598;2023-02-05T12:12:00;11.43;;;4.78;;
64653;SDS011;51065;48.884;12.598;2023-02-05T12:14:48;9.40;;;4.22;;
64653;SDS011;51065;48.884;12.598;2023-02-05T12:20:18;9.23;;;3.95;;
64653;SDS011;51065;48.884;12.598;2023-02-05T12:28:29;14.23;;;5.50;;
64653;SDS011;51065;48.884;12.598;2023-02-05T12:36:37;13.57;;;5.82;;
64653;SDS011;51065;48.884;12.598;2023-02-05T12:39:19;10.95;;;4.15;;
64653;SDS011;51065;48.884;12.598;2023-02-05T12:44:55;6.75;;;3.58;;
64653;SDS011;51065;48.884;12.598;2023-02-05T12:48:00;14.00;;;5.53;;
64653;SDS011;51065;48.884;12.598;2023-02-05T12:50:47;9.23;;;3.97;;
64653;SDS011;51065;48.884;12.598;2023-02-05T12:53:42;8.63;;;4.18;;
64653;SDS011;51065;48.884;12.598;2023-02-05T13:01:51;8.68;;;3.30;;
64653;SDS011;51065;48.884;12.598;2023-02-05T13:04:32;6.97;;;2.95;;
64653;SDS011;51065;48.884;12.598;2023-02-05T13:12:40;6.75;;;3.08;;
64653;SDS011;51065;48.884;12.598;2023-02-05T13:15:14;6.47;;;3.33;;
64653;SDS011;51065;48.884;12.598;2023-02-05T13:20:39;7.28;;;3.47;;
64653;SDS011;51065;48.884;12.598;2023-02-05T13:23:27;5.97;;;2.70;;
64653;SDS011;51065;48.884;12.598;2023-02-05T13:26:13;10.27;;;3.17;;
64653;SDS011;51065;48.884;12.598;2023-02-05T13:29:09;5.43;;;2.83;;
64653;SDS011;51065;48.884;12.598;2023-02-05T13:31:39;5.68;;;2.50;;
64653;SDS011;51065;48.884;12.598;2023-02-05T13:34:08;5.25;;;2.20;;
64653;SDS011;51065;48.884;12.598;2023-02-05T13:42:18;5.88;;;2.88;;
64653;SDS011;51065;48.884;12.598;2023-02-05T13:47:53;10.38;;;4.10;;
64653;SDS011;51065;48.884;12.598;2023-02-05T13:53:03;6.15;;;2.97;;
64653;SDS011;51065;48.884;12.598;2023-02-05T13:58:30;7.18;;;3.20;;
64653;SDS011;51065;48.884;12.598;2023-02-05T14:01:14;7.65;;;3.05;;
64653;SDS011;51065;48.884;12.598;2023-02-05T14:03:44;9.85;;;3.70;;
64653;SDS011;51065;48.884;12.598;2023-02-05T14:06:26;8.05;;;3.08;;
64653;SDS011;51065;48.884;12.598;2023-02-05T14:09:07;8.57;;;3.50;;
64653;SDS011;51065;48.884;12.598;2023-02-05T14:11:53;8.07;;;3.10;;
64653;SDS011;51065;48.884;12.598;2023-02-05T14:14:24;7.20;;;2.95;;
64653;SDS011;51065;48.884;12.598;2023-02-05T14:16:51;7.30;;;2.90;;
64653;SDS011;51065;48.884;12.598;2023-02-05T14:24:38;7.30;;;2.95;;
64653;SDS011;51065;48.884;12.598;2023-02-05T14:34:57;7.90;;;3.10;;
64653;SDS011;51065;48.884;12.598;2023-02-05T14:37:49;6.68;;;2.83;;
64653;SDS011;51065;48.884;12.598;2023-02-05T14:40:31;6.18;;;2.97;;
64653;SDS011;51065;48.884;12.598;2023-02-05T14:43:21;5.25;;;2.80;;
64653;SDS011;51065;48.884;12.598;2023-02-05T14:46:04;5.40;;;2.42;;
64653;SDS011;51065;48.884;12.598;2023-02-05T14:48:42;5.63;;;2.55;;
64653;SDS011;51065;48.884;12.598;2023-02-05T14:51:23;7.80;;;1.92;;
64653;SDS011;51065;48.884;12.598;2023-02-05T14:53:59;9.15;;;2.58;;
64653;SDS011;51065;48.884;12.598;2023-02-05T14:56:28;3.95;;;2.08;;
64653;SDS011;51065;48.884;12.598;2023-02-05T14:59:00;6.30;;;2.85;;
64653;SDS011;51065;48.884;12.598;2023-02-05T15:04:00;5.85;;;2.05;;
64653;SDS011;51065;48.884;12.598;2023-02-05T15:06:28;5.60;;;2.50;;
64653;SDS011;51065;48.884;12.598;2023-02-05T15:09:05;7.05;;;2.30;;
64653;SDS011;51065;48.884;12.598;2023-02-05T15:12:00;6.57;;;2.70;;
64653;SDS011;51065;48.884;12.598;2023-02-05T15:14:49;22.45;;;9.30;;
64653;SDS011;51065;48.884;12.598;2023-02-05T15:20:00;8.82;;;3.72;;
64653;SDS011;51065;48.884;12.598;2023-02-05T15:22:44;7.60;;;3.10;;
64653;SDS011;51065;48.884;12.598;2023-02-05T15:28:00;8.95;;;3.50;;
64653;SDS011;51065;48.884;12.598;2023-02-05T15:30:32;8.73;;;3.47;;
64653;SDS011;51065;48.884;12.598;2023-02-05T15:33:15;9.15;;;3.13;;
64653;SDS011;51065;48.884;12.598;2023-02-05T15:35:47;14.20;;;4.90;;
64653;SDS011;51065;48.884;12.598;2023-02-05T15:40:49;8.05;;;3.85;;
64653;SDS011;51065;48.884;12.598;2023-02-05T15:43:18;7.88;;;3.45;;
64653;SDS011;51065;48.884;12.598;2023-02-05T15:45:46;9.97;;;3.73;;
64653;SDS011;51065;48.884;12.598;2023-02-05T15:48:14;7.28;;;3.70;;
64653;SDS011;51065;48.884;12.598;2023-02-05T15:50:53;8.18;;;3.42;;
64653;SDS011;51065;48.884;12.598;2023-02-05T15:56:00;18.35;;;6.03;;
64653;SDS011;51065;48.884;12.598;2023-02-05T15:58:58;17.23;;;5.70;;
64653;SDS011;51065;48.884;12.598;2023-02-05T16:01:45;12.55;;;4.85;;
64653;SDS011;51065;48.884;12.598;2023-02-05T16:04:29;14.38;;;5.22;;
64653;SDS011;51065;48.884;12.598;2023-02-05T16:06:58;14.15;;;5.05;;
64653;SDS011;51065;48.884;12.598;2023-02-05T16:09:25;13.38;;;4.90;;
64653;SDS011;51065;48.884;12.598;2023-02-05T16:11:52;13.75;;;5.30;;
64653;SDS011;51065;48.884;12.598;2023-02-05T16:14:21;12.02;;;5.25;;
64653;SDS011;51065;48.884;12.598;2023-02-05T16:19:21;15.82;;;5.55;;
64653;SDS011;51065;48.884;12.598;2023-02-05T16:21:54;16.45;;;6.28;;
64653;SDS011;51065;48.884;12.598;2023-02-05T16:24:29;15.63;;;6.32;;
64653;SDS011;51065;48.884;12.598;2023-02-05T16:26:59;12.45;;;5.75;;
64653;SDS011;51065;48.884;12.598;2023-02-05T16:29:36;13.25;;;6.25;;
64653;SDS011;51065;48.884;12.598;2023-02-05T16:32:13;15.88;;;6.93;;
64653;SDS011;51065;48.884;12.598;2023-02-05T16:34:40;16.00;;;6.22;;
64653;SDS011;51065;48.884;12.598;2023-02-05T16:37:06;16.10;;;6.65;;
64653;SDS011;51065;48.884;12.598;2023-02-05T16:39:43;14.82;;;5.97;;
64653;SDS011;51065;48.884;12.598;2023-02-05T16:47:31;14.05;;;6.25;;
64653;SDS011;51065;48.884;12.598;2023-02-05T16:49:57;14.57;;;6.43;;
64653;SDS011;51065;48.884;12.598;2023-02-05T16:52:33;16.38;;;6.80;;
64653;SDS011;51065;48.884;12.598;2023-02-05T16:57:49;15.98;;;6.82;;
64653;SDS011;51065;48.884;12.598;2023-02-05T17:00:19;14.80;;;7.00;;
64653;SDS011;51065;48.884;12.598;2023-02-05T17:02:52;16.63;;;7.43;;